KSAC/SAC METAR and TAF weather

Enter ICAO airport designator
Station Type Date Time Source
KSAC METAR 2019/04/18 22:53 UTC NOAA

KSAC 182253Z 33003KT 10SM CLR 27/13 A3005 RMK AO2 SLP175 T02720128


Station Type Date Time Source
KSAC Decoded METAR 2019/04/18 22:53 UTC NOAA

SACRAMENTO EXECUTIVE AIRPORT , CA, United States (KSAC) 38-30N 121-30W 11M
Apr 18, 2019 - 06:53 PM EDT / 2019.04.18 2253 UTC
Wind: from the NNW (330 degrees) at 3 MPH (3 KT):0
Visibility: 10 mile(s):0
Sky conditions: clear
Temperature: 81.0 F (27.2 C)
Dew Point: 55.0 F (12.8 C)
Relative Humidity: 40%
Pressure (altimeter): 30.05 in. Hg (1017 hPa)
ob: KSAC 182253Z 33003KT 10SM CLR 27/13 A3005 RMK AO2 SLP175 T02720128
cycle: 23

Station Type Date Time Source
KSAC TAF 2019/04/18 18:30 UTC NOAA

TAF KSAC 181729Z 1818/1918 VRB05KT P6SM FEW250

Example: see airport list